ADDS METAR Data INFO
IDs: Format: Raw Decoded Include TAF

Data at: 1016 UTC 14 Dec 2017

KMNH 141012Z AUTO 36007KT 4SM -SN BKN004 OVC008 M04/M05 A3016 RMK AO2
KMNH 140953Z AUTO 36009KT 3SM -SN OVC006 M04/M05 A3016 RMK AO2
KMNH 140929Z AUTO 01005KT 4SM -SN OVC004 M04/M05 A3016 RMK AO2
KMNH 140912Z AUTO 01006KT 5SM -SN BKN004 OVC010 M04/M05 A3016 RMK AO2
KMNH 140854Z AUTO 01005KT 5SM -SN SCT004 OVC012 M04/M05 A3015 RMK AO2
KMNH 140831Z AUTO 01005KT 4SM -SN BKN004 BKN010 OVC013 M04/M05 A3015 RMK AO2
KMNH 140813Z AUTO 01005KT 7SM -SN BKN004 BKN011 OVC016 M04/M05 A3015 RMK AO2
KMNH 140746Z AUTO 02006KT 4SM -SN BKN012 OVC018 M04/M05 A3014 RMK AO2
KMNH 140729Z AUTO 02006KT 5SM -SN SCT008 OVC016 M04/M05 A3015 RMK AO2
KMNH 140711Z AUTO 01009KT 2 1/2SM -SN BKN008 BKN014 OVC022 M04/M05 A3015 RMK AO2
KMNH 140654Z AUTO 01013G20KT 7SM -SN SCT016 BKN030 OVC045 M03/M06 A3015 RMK AO2
KMNH 140630Z AUTO 36010G14KT 10SM SCT045 SCT050 SCT085 M01/M11 A3015 RMK AO2
KMNH 140612Z AUTO 36003KT 10SM SCT120 M01/M11 A3014 RMK AO2
KMNH 140551Z AUTO 00000KT 10SM SCT110 M01/M11 A3014 RMK AO2
KMNH 140534Z AUTO 31003KT 10SM CLR M01/M11 A3015 RMK AO2
KMNH 140512Z AUTO 33003KT 10SM CLR M01/M11 A3014 RMK AO2
KMNH 140454Z AUTO 00000KT 10SM CLR M01/M11 A3013 RMK AO2
KMNH 140431Z AUTO 04004KT 10SM SCT070 SCT080 M01/M11 A3012 RMK AO2
KMNH 140413Z AUTO 06006KT 10SM SCT070 BKN080 BKN100 00/M11 A3011 RMK AO2
KMNH 140352Z AUTO 09004KT 10SM BKN100 00/M11 A3011 RMK AO2
KMNH 140334Z AUTO 09005KT 10SM SCT100 00/M12 A3011 RMK AO2
KMNH 140311Z AUTO 09005KT 10SM SCT090 00/M12 A3009 RMK AO2
KMNH 140254Z AUTO 09004KT 10SM BKN090 00/M12 A3009 RMK AO2
KMNH 140230Z AUTO 08003KT 10SM OVC090 00/M12 A3009 RMK AO2
KMNH 140212Z AUTO 12004KT 10SM OVC090 00/M12 A3008 RMK AO2
KMNH 140152Z AUTO 13005KT 10SM OVC090 00/M12 A3007 RMK AO2
KMNH 140129Z AUTO 14006KT 10SM OVC090 00/M12 A3006 RMK AO2
KMNH 140112Z AUTO 13003KT 10SM OVC090 00/M12 A3007 RMK AO2
KMNH 140052Z AUTO 14006KT 10SM OVC090 00/M13 A3007 RMK AO2
KMNH 140029Z AUTO 14008KT 10SM SCT090 00/M13 A3007 RMK AO2
KMNH 140012Z AUTO 15005KT 10SM CLR 00/M13 A3006 RMK AO2
KMNH 132349Z AUTO 12005KT 10SM CLR 00/M13 A3006 RMK AO2
KMNH 132330Z AUTO 12005KT 10SM CLR 00/M13 A3005 RMK AO2
KMNH 132313Z AUTO 10006KT 10SM CLR 03/M13 A3006 RMK AO2
KMNH 132249Z AUTO 09007KT 10SM CLR 05/M13 A3006 RMK AO2
KMNH 132230Z AUTO 08005KT 10SM CLR 05/M14 A3005 RMK AO2
KMNH 132212Z AUTO 07005KT 10SM CLR 05/M14 A3006 RMK AO2
KMNH 132149Z AUTO 08004KT 10SM CLR 06/M14 A3006 RMK AO2
KMNH 132131Z AUTO 09005KT 10SM CLR 06/M13 A3006 RMK AO2
KMNH 132113Z AUTO 08005KT 10SM CLR 06/M13 A3006 RMK AO2
KMNH 132052Z AUTO 11005KT 10SM CLR 05/M14 A3008 RMK AO2
KMNH 132029Z AUTO 06003KT 10SM CLR 06/M14 A3009 RMK AO2
KMNH 132012Z AUTO 00000KT 10SM SCT110 06/M13 A3009 RMK AO2
KMNH 131953Z AUTO 00000KT 10SM SCT110 06/M13 A3010 RMK AO2
KMNH 131930Z AUTO 13003KT 10SM BKN110 05/M13 A3011 RMK AO2
KMNH 131912Z AUTO 00000KT 10SM SCT110 05/M13 A3013 RMK AO2
KMNH 131852Z AUTO 04005KT 10SM BKN110 05/M13 A3014 RMK AO2
KMNH 131834Z AUTO 03004KT 10SM BKN110 05/M13 A3016 RMK AO2
KMNH 131812Z AUTO 36005KT 10SM BKN110 05/M13 A3017 RMK AO2
KMNH 131753Z AUTO 03005KT 10SM BKN120 03/M13 A3018 RMK AO2
KMNH 131729Z AUTO 04004KT 10SM OVC120 02/M13 A3019 RMK AO2
KMNH 131711Z AUTO 02006KT 10SM OVC120 02/M13 A3021 RMK AO2
KMNH 131653Z AUTO 04006KT 10SM BKN110 02/M13 A3021 RMK AO2
KMNH 131630Z AUTO 06004KT 10SM OVC110 01/M13 A3021 RMK AO2
KMNH 131613Z AUTO 02003KT 10SM OVC110 01/M14 A3021 RMK AO2
KMNH 131554Z AUTO 00000KT 10SM OVC110 01/M13 A3021 RMK AO2
KMNH 131531Z AUTO 08005KT 10SM OVC110 00/M14 A3021 RMK AO2
KMNH 131513Z AUTO 08004KT 10SM OVC100 00/M14 A3021 RMK AO2
KMNH 131453Z AUTO 06005KT 10SM BKN110 00/M14 A3021 RMK AO2
KMNH 131430Z AUTO 07007KT 10SM BKN110 M01/M15 A3021 RMK AO2
KMNH 131412Z AUTO 07007KT 10SM SCT110 M01/M15 A3020 RMK AO2
KMNH 131351Z AUTO 07007KT 10SM CLR 00/M15 A3020 RMK AO2
KMNH 131334Z AUTO 07008KT 10SM CLR 00/M15 A3020 RMK AO2
KMNH 131312Z AUTO 06006KT 10SM CLR 00/M15 A3020 RMK AO2
KMNH 131253Z AUTO 07007G18KT 10SM CLR 01/M16 A3019 RMK AO2
KMNH 131229Z AUTO 29005KT 10SM CLR 00/M16 A3016 RMK AO2
KMNH 131213Z AUTO 30006KT 10SM CLR 00/M16 A3015 RMK AO2
KMNH 131152Z AUTO 29006KT 10SM CLR 00/M16 A3015 RMK AO2
KMNH 131134Z AUTO 26006KT 10SM CLR M01/M16 A3014 RMK AO2
KMNH 131111Z AUTO 25007KT 10SM CLR 01/M16 A3013 RMK AO2
KMNH 131054Z AUTO 24008KT 10SM CLR 01/M16 A3012 RMK AO2
KMNH 131030Z AUTO 24009KT 10SM CLR 01/M16 A3012 RMK AO2
KMNH 131012Z AUTO 25009KT 10SM CLR 00/M15 A3013 RMK AO2
KMNH 130949Z AUTO 24009KT 10SM CLR 01/M16 A3013 RMK AO2
KMNH 130931Z AUTO 24009KT 10SM CLR 01/M16 A3014 RMK AO2
KMNH 130913Z AUTO 25009KT 10SM CLR 00/M15 A3014 RMK AO2
KMNH 130852Z AUTO 27009KT 10SM CLR 00/M15 A3014 RMK AO2
KMNH 130830Z AUTO 25009KT 10SM CLR 01/M15 A3014 RMK AO2
KMNH 130813Z AUTO 25009KT 10SM CLR 01/M14 A3014 RMK AO2
KMNH 130751Z AUTO 24009KT 10SM CLR 01/M13 A3015 RMK AO2
KMNH 130733Z AUTO 25007KT 10SM CLR 01/M13 A3016 RMK AO2
KMNH 130709Z AUTO 24007KT 10SM CLR 01/M13 A3016 RMK AO2
KMNH 130654Z AUTO 24009KT 10SM CLR 01/M12 A3016 RMK AO2
KMNH 130630Z AUTO 23008KT 10SM CLR 02/M12 A3017 RMK AO2
KMNH 130612Z AUTO 25007KT 10SM CLR 01/M12 A3017 RMK AO2
KMNH 130553Z AUTO 26008KT 10SM CLR 02/M13 A3017 RMK AO2
KMNH 130530Z AUTO 26008KT 10SM CLR 01/M12 A3018 RMK AO2
KMNH 130512Z AUTO 25008KT 10SM CLR 02/M12 A3019 RMK AO2
KMNH 130452Z AUTO 27009KT 10SM CLR 00/M12 A3019 RMK AO2
KMNH 130429Z AUTO 28008KT 10SM CLR 00/M12 A3020 RMK AO2
KMNH 130412Z AUTO 27008KT 10SM CLR 02/M12 A3020 RMK AO2
KMNH 130353Z AUTO 26008KT 10SM CLR 01/M12 A3022 RMK AO2
KMNH 130329Z AUTO 25008KT 10SM CLR 02/M12 A3022 RMK AO2
KMNH 130312Z AUTO 26007KT 10SM CLR 01/M12 A3023 RMK AO2
KMNH 130253Z AUTO 24006KT 10SM CLR 00/M12 A3024 RMK AO2
KMNH 130230Z AUTO 27005KT 10SM CLR 01/M12 A3024 RMK AO2
KMNH 130211Z AUTO 26004KT 10SM CLR 01/M12 A3025 RMK AO2
KMNH 130154Z AUTO 24006KT 10SM CLR 01/M12 A3025 RMK AO2
KMNH 130148Z AUTO 23006KT 10SM CLR 03/M12 A3025 RMK AO2
KMNH 130129Z AUTO 24008KT 10SM CLR 03/M12 A3025 RMK AO2
KMNH 130111Z AUTO 23009KT 10SM CLR 03/M12 A3025 RMK AO2
KMNH 130052Z AUTO 23007KT 10SM CLR 03/M12 A3025 RMK AO2
KMNH 130034Z AUTO 21007KT 10SM CLR 05/M13 A3025 RMK AO2
KMNH 130011Z AUTO 23005KT 10SM CLR 08/M12 A3025 RMK AO2
KMNH 122354Z AUTO 28004KT 10SM CLR 08/M11 A3025 RMK AO2
KMNH 122330Z AUTO 02004KT 10SM CLR 10/M11 A3025 RMK AO2
KMNH 122312Z AUTO 01003KT 10SM CLR 12/M11 A3025 RMK AO2
KMNH 122253Z AUTO 03003KT 10SM CLR 13/M11 A3026 RMK AO2
KMNH 122230Z AUTO 04003KT 10SM CLR 14/M11 A3025 RMK AO2